createdAt,value
2018-12-12T00:01:48.586Z,69.00
2018-12-12T00:04:19.839Z,69.47
2018-12-12T00:06:49.334Z,72.13
2018-12-12T00:09:18.435Z,69.73
2018-12-12T00:11:47.626Z,67.07
2018-12-12T00:14:16.650Z,68.03
2018-12-12T00:16:45.745Z,68.17
2018-12-12T00:19:14.799Z,82.93
2018-12-12T00:21:43.844Z,85.33
2018-12-12T00:24:14.184Z,87.63
2018-12-12T00:26:43.186Z,73.57
2018-12-12T00:29:12.181Z,72.00
2018-12-12T00:31:41.514Z,70.30
2018-12-12T00:34:10.746Z,71.33
2018-12-12T00:36:39.882Z,67.53
2018-12-12T00:39:09.036Z,68.63
2018-12-12T00:41:38.295Z,68.40
2018-12-12T00:44:07.406Z,70.77
2018-12-12T00:46:36.539Z,64.50
2018-12-12T00:49:05.557Z,61.47
2018-12-12T00:51:34.883Z,64.33
2018-12-12T00:54:04.065Z,65.63
2018-12-12T00:56:33.139Z,59.37
2018-12-12T00:59:02.340Z,62.83
2018-12-12T01:01:31.424Z,62.53
2018-12-12T01:04:00.589Z,62.00
2018-12-12T01:06:29.794Z,62.70
2018-12-12T01:08:58.953Z,58.67
2018-12-12T01:11:33.593Z,64.00
2018-12-12T01:14:02.643Z,63.93
2018-12-12T01:16:31.678Z,65.03
2018-12-12T01:19:00.667Z,67.40
2018-12-12T01:21:29.958Z,66.30
2018-12-12T01:23:58.986Z,62.17
2018-12-12T01:26:28.241Z,61.43
2018-12-12T01:28:57.307Z,62.83
2018-12-12T01:31:26.303Z,63.10
2018-12-12T01:33:55.289Z,61.93
2018-12-12T01:36:24.273Z,61.90
2018-12-12T01:38:53.345Z,63.20
2018-12-12T01:41:22.336Z,61.67
2018-12-12T01:43:51.369Z,60.20
2018-12-12T01:46:20.609Z,61.13
2018-12-12T01:48:49.700Z,59.60
2018-12-12T01:51:19.059Z,58.83
2018-12-12T01:53:48.616Z,57.97
2018-12-12T01:56:17.613Z,59.47
2018-12-12T01:58:46.736Z,59.47
2018-12-12T02:01:15.802Z,59.00
2018-12-12T02:03:44.854Z,56.87
2018-12-12T02:06:14.002Z,57.83
2018-12-12T02:08:43.115Z,59.73
2018-12-12T02:11:12.241Z,61.07
2018-12-12T02:13:41.363Z,58.57
2018-12-12T02:16:10.433Z,63.50
2018-12-12T02:18:41.591Z,62.40
2018-12-12T02:21:10.605Z,63.57
2018-12-12T02:23:39.661Z,61.60
2018-12-12T02:26:08.790Z,62.93
2018-12-12T02:28:37.821Z,61.53
2018-12-12T02:31:07.021Z,59.63
2018-12-12T02:33:36.183Z,61.13
2018-12-12T02:36:05.221Z,60.33
2018-12-12T02:38:34.233Z,58.80
2018-12-12T02:41:03.240Z,58.80
2018-12-12T02:43:32.298Z,58.73
2018-12-12T02:46:01.362Z,61.10
2018-12-12T02:48:30.418Z,62.60
2018-12-12T02:50:59.393Z,60.13
2018-12-12T02:53:28.416Z,63.17
2018-12-12T02:55:57.436Z,61.07
2018-12-12T02:58:26.517Z,67.17
2018-12-12T03:00:55.619Z,65.00
2018-12-12T03:03:24.625Z,63.03
2018-12-12T03:05:53.709Z,61.37
2018-12-12T03:08:22.692Z,60.67
2018-12-12T03:10:51.804Z,58.43
2018-12-12T03:13:20.803Z,58.70
2018-12-12T03:15:49.852Z,59.47
2018-12-12T03:18:18.989Z,59.63
2018-12-12T03:20:47.993Z,56.83
2018-12-12T03:23:17.039Z,55.20
2018-12-12T03:25:46.019Z,55.03
2018-12-12T03:28:15.008Z,56.77
2018-12-12T03:30:44.040Z,55.87
2018-12-12T03:33:13.058Z,53.63
2018-12-12T03:35:42.255Z,52.40
2018-12-12T03:38:11.241Z,55.57
2018-12-12T03:40:40.813Z,52.67
2018-12-12T03:43:09.947Z,52.50
2018-12-12T03:45:38.996Z,55.20
2018-12-12T03:48:08.025Z,53.17
2018-12-12T03:50:37.034Z,53.30
2018-12-12T03:53:06.040Z,53.57
2018-12-12T03:55:35.049Z,56.03
2018-12-12T03:58:04.044Z,57.47
2018-12-12T04:00:33.145Z,58.47
2018-12-12T04:03:02.180Z,56.37
2018-12-12T04:05:31.210Z,58.73
2018-12-12T04:08:00.299Z,58.43
2018-12-12T04:10:29.360Z,64.03
2018-12-12T04:12:58.403Z,58.93
2018-12-12T04:15:27.413Z,54.90
2018-12-12T04:17:56.432Z,56.63
2018-12-12T04:20:25.452Z,59.60
2018-12-12T04:22:58.359Z,59.87
2018-12-12T04:25:27.882Z,54.57
2018-12-12T04:27:56.906Z,56.00
2018-12-12T04:30:25.984Z,54.77
2018-12-12T04:32:55.052Z,56.20
2018-12-12T04:35:24.126Z,55.47
2018-12-12T04:37:53.246Z,52.80
2018-12-12T04:40:22.349Z,51.93
2018-12-12T04:42:51.322Z,53.00
2018-12-12T04:45:20.333Z,53.20
2018-12-12T04:47:50.937Z,53.80
2018-12-12T04:50:20.154Z,55.67
2018-12-12T04:52:49.232Z,51.80
2018-12-12T04:55:18.257Z,53.60
2018-12-12T04:57:47.261Z,55.87
2018-12-12T05:00:16.360Z,56.90
2018-12-12T05:02:45.829Z,56.20
2018-12-12T05:05:14.825Z,56.83
2018-12-12T05:07:43.854Z,55.07
2018-12-12T05:10:12.895Z,55.13
2018-12-12T05:12:42.071Z,52.90
2018-12-12T05:15:11.395Z,54.50
2018-12-12T05:17:40.433Z,54.37
2018-12-12T05:20:09.422Z,54.20
2018-12-12T05:22:38.981Z,51.33
2018-12-12T05:25:08.032Z,54.70
2018-12-12T05:27:37.076Z,52.17
2018-12-12T05:30:06.270Z,51.00
2018-12-12T05:32:35.304Z,51.90
2018-12-12T05:35:04.353Z,46.50
2018-12-12T05:37:33.486Z,47.10
2018-12-12T05:40:02.550Z,50.13
2018-12-12T05:42:32.105Z,46.33
2018-12-12T05:45:01.148Z,48.17
2018-12-12T05:47:30.242Z,49.13
2018-12-12T05:49:59.344Z,48.80
2018-12-12T05:52:28.472Z,47.87
2018-12-12T05:54:57.467Z,48.13
2018-12-12T05:57:26.541Z,51.40
2018-12-12T05:59:55.667Z,48.27
2018-12-12T06:02:24.709Z,46.43
2018-12-12T06:04:53.881Z,47.17
2018-12-12T06:07:22.926Z,48.00
2018-12-12T06:09:51.986Z,46.80
2018-12-12T06:12:21.018Z,47.60
2018-12-12T06:14:50.228Z,47.67
2018-12-12T06:17:19.317Z,41.90
2018-12-12T06:19:48.377Z,44.17
2018-12-12T06:22:17.845Z,46.07
2018-12-12T06:24:46.933Z,46.23
2018-12-12T06:27:15.954Z,46.13
2018-12-12T06:29:44.997Z,48.90
2018-12-12T06:32:14.050Z,44.10
2018-12-12T06:34:43.199Z,53.00
2018-12-12T06:37:12.353Z,79.27
2018-12-12T06:39:41.361Z,58.60
2018-12-12T06:42:10.382Z,49.93
2018-12-12T06:44:39.437Z,46.13
2018-12-12T06:47:08.485Z,46.53
2018-12-12T06:49:37.598Z,44.97
2018-12-12T06:52:06.721Z,44.43
2018-12-12T06:54:35.853Z,47.30
2018-12-12T06:57:04.836Z,44.63
2018-12-12T06:59:33.831Z,47.40
2018-12-12T07:02:02.971Z,44.40
2018-12-12T07:04:32.357Z,54.47
2018-12-12T07:07:01.776Z,44.30
2018-12-12T07:09:30.800Z,85.23
2018-12-12T07:11:59.814Z,97.30
2018-12-12T07:14:28.890Z,82.07
2018-12-12T07:16:57.905Z,54.97
2018-12-12T07:19:26.965Z,44.60
2018-12-12T07:21:56.172Z,42.63
2018-12-12T07:24:25.291Z,41.97
2018-12-12T07:26:54.352Z,42.10
2018-12-12T07:29:23.359Z,42.97
2018-12-12T07:31:52.429Z,44.87
2018-12-12T07:34:21.521Z,42.90
2018-12-12T07:36:50.557Z,41.87
2018-12-12T07:39:19.583Z,40.60
2018-12-12T07:41:48.981Z,41.77
2018-12-12T07:44:20.073Z,40.77
2018-12-12T07:47:06.006Z,37.10
2018-12-12T07:49:37.505Z,38.57
2018-12-12T07:52:13.144Z,42.07
2018-12-12T07:54:42.241Z,40.90
2018-12-12T07:57:11.434Z,39.47
2018-12-12T07:59:40.457Z,37.83
2018-12-12T08:02:09.521Z,38.13
2018-12-12T08:04:38.503Z,38.73
2018-12-12T08:07:07.632Z,39.07
2018-12-12T08:09:36.733Z,41.87
2018-12-12T08:12:05.840Z,43.63
2018-12-12T08:14:34.885Z,40.40
2018-12-12T08:17:03.861Z,39.50
2018-12-12T08:19:33.015Z,45.37
2018-12-12T08:22:02.057Z,51.33
2018-12-12T08:24:32.183Z,44.87
2018-12-12T08:27:01.303Z,43.10
2018-12-12T08:29:30.445Z,38.50
2018-12-12T08:34:25.085Z,40.27
2018-12-12T08:44:12.187Z,36.87
2018-12-12T08:46:41.528Z,39.37
2018-12-12T08:49:10.733Z,37.57
2018-12-12T08:51:39.741Z,39.80
2018-12-12T08:54:08.904Z,41.70
2018-12-12T08:56:37.910Z,43.20
2018-12-12T08:59:07.078Z,38.77
2018-12-12T09:01:36.538Z,48.03
2018-12-12T09:04:05.559Z,43.70
2018-12-12T09:06:35.743Z,42.53
2018-12-12T09:09:06.702Z,40.43
2018-12-12T09:11:37.730Z,40.63
2018-12-12T09:14:06.706Z,39.77
2018-12-12T09:16:35.933Z,39.07
2018-12-12T09:19:05.122Z,38.80
2018-12-12T09:21:35.795Z,40.20
2018-12-12T09:24:05.181Z,74.70
2018-12-12T09:26:35.253Z,90.83
2018-12-12T09:29:04.370Z,53.00
2018-12-12T09:31:35.494Z,35.03
2018-12-12T09:34:06.486Z,61.80
2018-12-12T09:36:35.605Z,36.80
2018-12-12T09:39:07.660Z,34.67
2018-12-12T09:41:38.798Z,47.43
2018-12-12T09:44:09.101Z,139.53
2018-12-12T09:46:38.231Z,157.23
2018-12-12T09:49:07.444Z,185.33
2018-12-12T09:51:38.497Z,38.80
2018-12-12T09:54:09.521Z,57.40
2018-12-12T09:56:38.717Z,35.77
2018-12-12T09:59:07.830Z,34.73
2018-12-12T10:01:36.809Z,116.70
2018-12-12T10:04:05.813Z,38.13
2018-12-12T10:06:34.937Z,86.93
2018-12-12T10:09:05.509Z,98.67
2018-12-12T10:11:36.513Z,34.70
2018-12-12T10:14:05.578Z,29.77
2018-12-12T10:16:34.694Z,43.87
2018-12-12T10:19:03.770Z,90.57
2018-12-12T10:21:32.831Z,56.77
2018-12-12T10:24:02.937Z,109.67
2018-12-12T10:26:32.092Z,146.20
2018-12-12T10:29:01.309Z,110.20
2018-12-12T10:31:30.544Z,44.50
2018-12-12T10:33:59.484Z,49.83
2018-12-12T10:36:28.497Z,53.50
2018-12-12T10:38:57.471Z,32.37
2018-12-12T10:41:26.463Z,29.37
2018-12-12T10:43:55.587Z,33.77
2018-12-12T10:46:24.588Z,51.07
2018-12-12T10:48:55.020Z,69.67
2018-12-12T10:51:24.025Z,83.10
2018-12-12T10:53:53.115Z,97.60
2018-12-12T10:56:22.221Z,95.17
2018-12-12T10:58:51.343Z,77.80
2018-12-12T11:01:25.669Z,60.57
2018-12-12T11:03:54.681Z,121.07
2018-12-12T11:06:23.709Z,74.73
2018-12-12T11:08:52.839Z,64.43
2018-12-12T11:11:21.842Z,31.03
2018-12-12T11:13:50.939Z,89.03
2018-12-12T11:16:19.952Z,69.43
2018-12-12T11:18:48.982Z,41.57
2018-12-12T11:21:18.097Z,45.53
2018-12-12T11:23:47.085Z,38.43
2018-12-12T11:26:16.107Z,30.90
2018-12-12T11:28:45.198Z,33.10
2018-12-12T11:31:14.209Z,76.37
2018-12-12T11:33:43.283Z,66.60
2018-12-12T11:36:12.274Z,58.37
2018-12-12T11:38:41.288Z,48.73
2018-12-12T11:41:10.318Z,41.20
2018-12-12T11:43:39.414Z,52.43
2018-12-12T11:46:08.483Z,56.37
2018-12-12T11:48:37.525Z,32.00
2018-12-12T11:51:06.647Z,41.17
2018-12-12T11:53:35.717Z,26.33
2018-12-12T11:56:04.778Z,46.43
2018-12-12T11:58:33.853Z,29.70
2018-12-12T12:01:03.696Z,27.37
2018-12-12T12:03:34.792Z,44.47
2018-12-12T12:06:04.070Z,79.90
2018-12-12T12:08:33.169Z,30.13
2018-12-12T12:11:02.148Z,33.07
2018-12-12T12:13:33.115Z,42.00
2018-12-12T12:16:02.126Z,34.47
2018-12-12T12:18:31.095Z,35.90
2018-12-12T12:21:00.121Z,36.20
2018-12-12T12:23:29.218Z,30.10
2018-12-12T12:25:58.294Z,39.70
2018-12-12T12:28:27.378Z,34.70
2018-12-12T12:30:56.646Z,28.00
2018-12-12T12:33:25.685Z,23.77
2018-12-12T12:35:54.709Z,28.10
2018-12-12T12:38:24.153Z,27.10
2018-12-12T12:40:53.174Z,22.47
2018-12-12T12:43:22.356Z,20.70
2018-12-12T12:45:51.489Z,21.43
2018-12-12T12:48:20.564Z,21.63
2018-12-12T12:50:49.561Z,21.27
2018-12-12T12:53:18.636Z,23.90
2018-12-12T12:55:47.610Z,26.37
2018-12-12T12:58:16.710Z,22.67
2018-12-12T13:00:45.729Z,23.27
2018-12-12T13:03:14.898Z,20.10
2018-12-12T13:05:43.905Z,22.83
2018-12-12T13:08:12.934Z,22.23
2018-12-12T13:10:42.252Z,22.60
2018-12-12T13:13:11.697Z,21.40
2018-12-12T13:15:41.117Z,21.03
2018-12-12T13:18:10.385Z,21.93
2018-12-12T13:20:39.496Z,22.57
2018-12-12T13:23:08.628Z,26.90
2018-12-12T13:25:37.943Z,19.13
2018-12-12T13:28:07.051Z,20.63
2018-12-12T13:30:36.039Z,19.87
2018-12-12T13:33:05.057Z,21.63
2018-12-12T13:35:34.073Z,23.50
2018-12-12T13:38:03.126Z,19.87
2018-12-12T13:40:32.157Z,22.17
2018-12-12T13:43:01.252Z,21.80
2018-12-12T13:45:30.289Z,23.07
2018-12-12T13:48:00.286Z,22.53
2018-12-12T13:50:29.307Z,30.10
2018-12-12T13:52:58.378Z,23.70
2018-12-12T13:55:27.439Z,26.30
2018-12-12T13:57:56.417Z,27.87
2018-12-12T14:00:25.483Z,27.63
2018-12-12T14:02:54.459Z,28.73
2018-12-12T14:05:23.481Z,28.27
2018-12-12T14:07:52.513Z,27.97
2018-12-12T14:10:21.521Z,27.33
2018-12-12T14:12:50.624Z,28.40
2018-12-12T14:15:19.594Z,26.37
2018-12-12T14:17:48.565Z,27.20
2018-12-12T14:20:17.754Z,27.03
2018-12-12T14:22:46.941Z,28.03
2018-12-12T14:25:16.099Z,26.17
2018-12-12T14:27:45.065Z,27.90
2018-12-12T14:30:14.127Z,26.20
2018-12-12T14:32:43.306Z,26.37
2018-12-12T14:35:12.375Z,26.50
2018-12-12T14:37:41.558Z,26.47
2018-12-12T14:40:10.581Z,28.47
2018-12-12T14:42:39.684Z,27.83
2018-12-12T14:45:08.814Z,28.23
2018-12-12T14:47:37.882Z,28.57
2018-12-12T14:50:06.954Z,27.87
2018-12-12T14:52:36.000Z,26.87
2018-12-12T14:55:04.985Z,30.17
2018-12-12T14:57:33.977Z,31.23
2018-12-12T15:00:03.342Z,31.37
2018-12-12T15:02:32.526Z,31.77
2018-12-12T15:05:01.514Z,33.70
2018-12-12T15:07:30.526Z,32.00
2018-12-12T15:09:59.700Z,34.50
2018-12-12T15:12:28.790Z,34.93
2018-12-12T15:14:57.905Z,63.70
2018-12-12T15:17:26.949Z,54.83
2018-12-12T15:19:55.935Z,85.27
2018-12-12T15:22:25.212Z,70.40
2018-12-12T15:24:54.341Z,151.70
2018-12-12T15:27:23.453Z,157.77
2018-12-12T15:29:52.614Z,120.03
2018-12-12T15:32:21.603Z,173.03
2018-12-12T15:34:50.614Z,190.33
2018-12-12T15:37:19.620Z,178.10
2018-12-12T15:39:48.657Z,199.37
2018-12-12T15:42:17.638Z,69.13
2018-12-12T15:44:46.627Z,130.57
2018-12-12T15:47:15.685Z,126.77
2018-12-12T15:49:44.760Z,141.40
2018-12-12T15:52:13.921Z,194.83
2018-12-12T15:54:42.951Z,121.27
2018-12-12T15:57:12.217Z,152.97
2018-12-12T15:59:41.281Z,103.33
2018-12-12T16:02:10.351Z,74.47
2018-12-12T16:04:39.570Z,79.77
2018-12-12T16:07:08.578Z,74.20
2018-12-12T16:09:37.642Z,43.73
2018-12-12T16:12:06.978Z,148.27
2018-12-12T16:14:36.107Z,101.43
2018-12-12T16:17:05.259Z,113.17
2018-12-12T16:19:34.385Z,87.77
2018-12-12T16:22:03.394Z,72.83
2018-12-12T16:24:32.623Z,53.90
2018-12-12T16:27:01.777Z,103.33
2018-12-12T16:29:30.851Z,72.90
2018-12-12T16:31:59.904Z,89.73
2018-12-12T16:34:28.906Z,78.50
2018-12-12T16:36:58.094Z,38.27
2018-12-12T16:39:27.197Z,46.37
2018-12-12T16:41:56.265Z,52.60
2018-12-12T16:44:25.337Z,54.37
2018-12-12T16:47:12.061Z,49.77
2018-12-12T16:49:41.165Z,48.80
2018-12-12T16:52:10.233Z,56.10
2018-12-12T16:54:39.265Z,57.50
2018-12-12T16:57:08.427Z,58.20
2018-12-12T16:59:37.476Z,52.53
2018-12-12T17:02:06.505Z,44.83
2018-12-12T17:04:35.543Z,51.03
2018-12-12T17:07:04.554Z,55.87
2018-12-12T17:09:34.557Z,58.20
2018-12-12T17:12:03.909Z,32.50
2018-12-12T17:14:33.153Z,42.33
2018-12-12T17:17:02.192Z,56.77
2018-12-12T17:19:31.472Z,35.67
2018-12-12T17:22:00.499Z,23.50
2018-12-12T17:24:29.572Z,38.87
2018-12-12T17:26:58.754Z,35.37
2018-12-12T17:29:27.814Z,46.97
2018-12-12T17:31:56.883Z,35.33
2018-12-12T17:34:25.906Z,51.90
2018-12-12T17:36:55.152Z,30.20
2018-12-12T17:39:24.158Z,41.00
2018-12-12T17:41:53.251Z,21.80
2018-12-12T17:44:22.399Z,48.37
2018-12-12T17:46:51.436Z,34.40
2018-12-12T17:49:20.425Z,36.73
2018-12-12T17:51:49.497Z,30.43
2018-12-12T17:54:18.753Z,36.57
2018-12-12T17:56:48.412Z,39.53
2018-12-12T17:59:18.536Z,39.60
2018-12-12T18:01:47.551Z,31.13
2018-12-12T18:04:39.296Z,37.07
2018-12-12T18:07:08.311Z,43.53
2018-12-12T18:09:37.498Z,32.40
2018-12-12T18:12:06.680Z,27.90
2018-12-12T18:14:35.956Z,41.90
2018-12-12T18:17:07.049Z,40.13
2018-12-12T18:19:36.034Z,49.13
2018-12-12T18:22:05.057Z,65.63
2018-12-12T18:24:36.121Z,42.67
2018-12-12T18:27:05.139Z,40.87
2018-12-12T18:29:34.242Z,29.87
2018-12-12T18:32:05.442Z,28.83
2018-12-12T18:34:55.268Z,49.43
2018-12-12T18:37:24.481Z,38.07
2018-12-12T18:39:53.540Z,33.30
2018-12-12T18:42:24.690Z,28.63
2018-12-12T18:44:55.691Z,37.90
2018-12-12T18:47:24.703Z,32.43
2018-12-12T18:49:53.700Z,32.20
2018-12-12T18:52:24.664Z,31.87
2018-12-12T18:54:53.821Z,32.10
2018-12-12T18:57:24.847Z,26.60
2018-12-12T18:59:54.970Z,28.50
2018-12-12T19:02:25.223Z,33.77
2018-12-12T19:04:54.346Z,28.63
2018-12-12T19:07:23.483Z,30.83
2018-12-12T19:09:52.497Z,35.43
2018-12-12T19:12:21.617Z,37.77
2018-12-12T19:14:56.161Z,36.77
2018-12-12T19:17:25.636Z,32.57
2018-12-12T19:19:54.602Z,30.57
2018-12-12T19:22:23.705Z,25.30
2018-12-12T19:24:52.764Z,29.13
2018-12-12T19:27:21.810Z,27.97
2018-12-12T19:29:50.816Z,26.13
2018-12-12T19:32:19.810Z,24.40
2018-12-12T19:34:49.941Z,25.07
2018-12-12T19:37:19.181Z,24.17
2018-12-12T19:39:48.249Z,25.90
2018-12-12T19:42:17.328Z,26.53
2018-12-12T19:44:46.460Z,26.97
2018-12-12T19:47:15.539Z,26.37
2018-12-12T19:49:44.576Z,27.77
2018-12-12T19:52:13.579Z,27.90
2018-12-12T19:54:42.796Z,26.17
2018-12-12T19:57:11.850Z,26.93
2018-12-12T19:59:40.917Z,28.40
2018-12-12T20:02:10.092Z,27.93
2018-12-12T20:04:40.240Z,29.00
2018-12-12T20:07:09.644Z,27.17
2018-12-12T20:09:38.727Z,27.60
2018-12-12T20:12:07.873Z,28.77
2018-12-12T20:14:36.898Z,27.77
2018-12-12T20:17:05.976Z,27.20
2018-12-12T20:19:35.027Z,26.67
2018-12-12T20:22:04.152Z,25.90
2018-12-12T20:24:33.236Z,23.77
2018-12-12T20:27:02.406Z,24.03
2018-12-12T20:29:32.598Z,24.63
2018-12-12T20:32:01.585Z,25.37
2018-12-12T20:34:30.732Z,27.13
2018-12-12T20:37:00.327Z,23.93
2018-12-12T20:39:29.316Z,26.13
2018-12-12T20:41:58.336Z,25.80
2018-12-12T20:44:27.418Z,26.50
2018-12-12T20:46:56.547Z,24.53
2018-12-12T20:49:25.632Z,24.73
2018-12-12T20:51:54.655Z,26.50
2018-12-12T20:54:23.645Z,24.70
2018-12-12T20:56:52.618Z,26.27
2018-12-12T20:59:21.673Z,26.83
2018-12-12T21:01:51.884Z,29.37
2018-12-12T21:04:20.854Z,28.77
2018-12-12T21:06:50.111Z,27.90
2018-12-12T21:09:19.191Z,26.70
2018-12-12T21:11:48.205Z,28.33
2018-12-12T21:14:17.294Z,24.40
2018-12-12T21:16:46.558Z,25.77
2018-12-12T21:19:15.622Z,27.37
2018-12-12T21:21:44.726Z,26.03
2018-12-12T21:24:13.751Z,26.67
2018-12-12T21:26:42.795Z,26.40
2018-12-12T21:29:11.796Z,28.77
2018-12-12T21:31:40.768Z,27.40
2018-12-12T21:34:09.810Z,27.27
2018-12-12T21:36:38.935Z,26.00
2018-12-12T21:39:08.007Z,27.97
2018-12-12T21:41:39.097Z,28.43
2018-12-12T21:44:08.256Z,25.17
2018-12-12T21:46:37.335Z,24.07
2018-12-12T21:49:06.597Z,24.60
2018-12-12T21:51:35.706Z,27.40
2018-12-12T21:54:04.734Z,28.17
2018-12-12T21:56:33.720Z,28.43
2018-12-12T21:59:03.229Z,32.60
2018-12-12T22:01:32.244Z,31.07
2018-12-12T22:04:01.250Z,31.60
2018-12-12T22:06:30.328Z,32.17
2018-12-12T22:08:59.397Z,30.97
2018-12-12T22:11:28.453Z,30.67
2018-12-12T22:13:57.646Z,31.83
2018-12-12T22:16:26.812Z,27.63
2018-12-12T22:18:55.861Z,29.23
2018-12-12T22:21:25.014Z,29.30
2018-12-12T22:23:54.018Z,28.73
2018-12-12T22:26:23.086Z,27.17
2018-12-12T22:28:52.213Z,26.13
2018-12-12T22:31:21.225Z,25.43
2018-12-12T22:33:50.269Z,24.90
2018-12-12T22:36:19.382Z,23.27
2018-12-12T22:38:48.775Z,21.83
2018-12-12T22:41:18.124Z,23.77
2018-12-12T22:43:47.152Z,26.00
2018-12-12T22:46:16.314Z,27.23
2018-12-12T22:48:45.445Z,23.50
2018-12-12T22:51:14.529Z,33.70
2018-12-12T22:53:43.570Z,24.53
2018-12-12T22:56:12.744Z,25.60
2018-12-12T22:58:41.714Z,22.60
2018-12-12T23:01:13.434Z,22.33
2018-12-12T23:03:44.438Z,22.97
2018-12-12T23:06:20.213Z,22.80
2018-12-12T23:08:45.457Z,22.83
2018-12-12T23:11:14.464Z,22.00
2018-12-12T23:13:43.789Z,24.10
2018-12-12T23:16:12.965Z,21.43
2018-12-12T23:18:42.113Z,23.27
2018-12-12T23:21:11.105Z,23.33
2018-12-12T23:23:40.208Z,22.13
2018-12-12T23:26:09.372Z,21.73
2018-12-12T23:28:38.366Z,21.40
2018-12-12T23:31:07.406Z,21.07
2018-12-12T23:33:36.377Z,20.67
2018-12-12T23:36:05.356Z,21.37
2018-12-12T23:38:34.414Z,21.80
2018-12-12T23:41:03.513Z,23.43
2018-12-12T23:43:32.567Z,23.27
2018-12-12T23:46:01.577Z,20.90
2018-12-12T23:48:30.547Z,20.53
2018-12-12T23:50:59.550Z,21.63
2018-12-12T23:53:28.660Z,21.33
2018-12-12T23:55:57.758Z,22.07
2018-12-12T23:58:26.926Z,23.40
